Time;durP1;ratioP1;P1;durP2;ratioP2;P2;SDS_P1;SDS_P2;PMS_P1;PMS_P2;Temp;Humidity;BMP_temperature;BMP_pressure;BME280_temperature;BME280_humidity;BME280_pressure;Samples;Min_cycle;Max_cycle;Signal;HPM_P1;HPM_P2
2024/01/24 00:00:48;;;;;;;5.38;1.45;;;11.60;99.90;;;;;;4897448;29;20488;-61
2024/01/24 00:03:14;;;;;;;9.48;1.83;;;11.60;99.90;;;;;;4900162;29;20119;-59
2024/01/24 00:05:39;;;;;;;14.50;2.90;;;11.60;99.90;;;;;;4898771;29;20057;-59
2024/01/24 00:08:05;;;;;;;10.70;1.90;;;11.60;99.90;;;;;;4902138;29;20032;-61
2024/01/24 00:10:31;;;;;;;14.15;2.08;;;11.60;99.90;;;;;;4899871;29;20024;-59
2024/01/24 00:12:56;;;;;;;13.77;2.10;;;11.60;99.90;;;;;;4920375;29;20033;-59
2024/01/24 00:15:23;;;;;;;10.75;2.10;;;11.60;99.90;;;;;;4904204;29;20048;-60
2024/01/24 00:17:49;;;;;;;11.38;1.90;;;11.60;99.90;;;;;;4900817;29;20032;-59
2024/01/24 00:20:14;;;;;;;9.27;1.92;;;11.60;99.90;;;;;;4901816;29;20016;-59
2024/01/24 00:22:40;;;;;;;13.40;2.10;;;11.60;99.90;;;;;;4903049;29;20040;-59
2024/01/24 00:25:06;;;;;;;16.33;2.13;;;11.60;99.90;;;;;;4902915;29;20123;-60
2024/01/24 00:27:32;;;;;;;19.42;2.28;;;11.60;99.90;;;;;;4900530;29;20385;-60
2024/01/24 00:29:57;;;;;;;21.88;2.50;;;11.60;99.90;;;;;;4901155;29;20761;-61
2024/01/24 00:32:23;;;;;;;14.68;2.20;;;11.60;99.90;;;;;;4910333;29;20031;-60
2024/01/24 00:34:48;;;;;;;16.25;2.72;;;11.60;99.90;;;;;;4899175;29;20032;-59
2024/01/24 00:37:15;;;;;;;14.02;2.88;;;11.60;99.90;;;;;;4900430;29;20025;-59
2024/01/24 00:39:40;;;;;;;12.90;2.40;;;11.50;99.90;;;;;;4902667;29;20036;-58
2024/01/24 00:42:06;;;;;;;16.02;2.55;;;11.50;99.90;;;;;;4897609;29;20040;-59
2024/01/24 00:44:32;;;;;;;17.48;2.17;;;11.50;99.90;;;;;;4916378;29;20028;-59
2024/01/24 00:46:57;;;;;;;16.77;2.22;;;11.50;99.90;;;;;;4911461;29;20043;-59
2024/01/24 00:49:25;;;;;;;13.45;2.00;;;11.50;99.90;;;;;;4915403;29;20024;-59
2024/01/24 00:51:50;;;;;;;17.00;2.92;;;11.50;99.90;;;;;;4910925;29;20096;-59
2024/01/24 00:54:16;;;;;;;20.48;2.85;;;11.50;99.90;;;;;;4914746;29;20063;-58
2024/01/24 00:56:42;;;;;;;15.48;2.60;;;11.50;99.90;;;;;;4917569;29;20024;-58
2024/01/24 00:59:08;;;;;;;20.42;3.85;;;11.50;99.90;;;;;;4916938;29;20487;-59
2024/01/24 01:01:33;;;;;;;23.58;3.85;;;11.50;99.90;;;;;;4911995;29;20385;-59
2024/01/24 01:03:59;;;;;;;15.07;2.67;;;11.50;99.90;;;;;;4918969;29;20079;-58
2024/01/24 01:06:26;;;;;;;20.77;2.95;;;11.50;99.90;;;;;;4916952;29;20023;-58
2024/01/24 01:08:51;;;;;;;30.98;3.42;;;11.50;99.90;;;;;;4913504;29;20175;-59
2024/01/24 01:11:17;;;;;;;20.10;3.47;;;11.50;99.90;;;;;;4908839;29;20111;-57
2024/01/24 01:13:43;;;;;;;22.85;4.07;;;11.50;99.90;;;;;;4912726;29;20131;-58
2024/01/24 01:16:09;;;;;;;18.65;2.95;;;11.60;99.90;;;;;;4913504;29;20488;-58
2024/01/24 01:18:34;;;;;;;26.80;2.80;;;11.60;99.90;;;;;;4914447;29;20050;-56
2024/01/24 01:21:00;;;;;;;20.95;3.00;;;11.60;99.90;;;;;;4907546;29;20035;-57
2024/01/24 01:23:25;;;;;;;23.33;3.47;;;11.60;99.90;;;;;;4915289;29;20058;-61
2024/01/24 01:25:52;;;;;;;22.33;3.70;;;11.60;99.90;;;;;;4913655;29;20056;-60
2024/01/24 01:28:18;;;;;;;25.48;3.67;;;11.60;99.90;;;;;;4911138;29;20060;-57
2024/01/24 01:30:43;;;;;;;19.73;3.20;;;11.60;99.90;;;;;;4917107;29;20035;-57
2024/01/24 01:33:09;;;;;;;12.13;2.40;;;11.60;99.90;;;;;;4920285;29;20048;-57
2024/01/24 01:35:35;;;;;;;18.58;2.85;;;11.60;99.90;;;;;;4910669;29;20024;-58
2024/01/24 01:38:01;;;;;;;23.50;4.70;;;11.50;99.90;;;;;;4910041;29;20115;-57
2024/01/24 01:40:28;;;;;;;22.58;4.22;;;11.50;99.90;;;;;;4913228;29;20104;-57
2024/01/24 01:42:54;;;;;;;27.75;4.35;;;11.50;99.90;;;;;;4912721;29;20096;-57
2024/01/24 01:45:19;;;;;;;24.08;3.67;;;11.50;99.90;;;;;;4910496;29;20024;-58
2024/01/24 01:47:47;;;;;;;19.25;3.38;;;11.40;99.90;;;;;;4908079;29;20025;-59
2024/01/24 01:50:14;;;;;;;17.63;3.50;;;11.40;99.90;;;;;;4913640;29;20029;-58
2024/01/24 01:52:40;;;;;;;17.20;3.97;;;11.40;99.90;;;;;;4920086;29;20035;-57
2024/01/24 01:55:08;;;;;;;25.60;3.72;;;11.30;99.90;;;;;;4911376;29;20032;-59
2024/01/24 01:57:34;;;;;;;15.93;2.50;;;11.30;99.90;;;;;;4909536;29;20471;-55
2024/01/24 02:00:00;;;;;;;16.85;2.83;;;11.30;99.90;;;;;;4910996;29;20051;-58
2024/01/24 02:02:26;;;;;;;18.05;2.92;;;11.20;99.90;;;;;;4911634;29;20047;-58
2024/01/24 02:04:52;;;;;;;25.52;3.67;;;11.30;99.90;;;;;;4914456;29;20039;-58
2024/01/24 02:07:17;;;;;;;25.05;3.85;;;11.30;99.90;;;;;;4913276;29;20504;-59
2024/01/24 02:09:44;;;;;;;25.70;3.95;;;11.30;99.90;;;;;;4919443;29;20093;-59
2024/01/24 02:12:09;;;;;;;21.30;3.58;;;11.30;99.90;;;;;;4915104;29;20032;-59
2024/01/24 02:14:35;;;;;;;35.53;4.70;;;11.20;99.90;;;;;;4911506;29;20035;-58
2024/01/24 02:17:01;;;;;;;31.58;4.85;;;11.20;99.90;;;;;;4912958;29;20136;-59
2024/01/24 02:19:27;;;;;;;26.38;3.42;;;11.20;99.90;;;;;;4916144;29;20064;-59
2024/01/24 02:21:53;;;;;;;18.02;3.10;;;11.20;99.90;;;;;;4912088;29;20044;-59
2024/01/24 02:24:18;;;;;;;20.05;3.83;;;11.10;99.90;;;;;;4911662;29;20047;-58
2024/01/24 02:26:44;;;;;;;26.33;3.85;;;11.10;99.90;;;;;;4913032;29;20089;-59
2024/01/24 02:29:11;;;;;;;24.15;4.03;;;11.10;99.90;;;;;;4912787;29;20100;-58
2024/01/24 02:31:37;;;;;;;16.98;3.33;;;11.10;99.90;;;;;;4913610;29;20028;-58
2024/01/24 02:34:03;;;;;;;21.20;3.10;;;11.00;99.90;;;;;;4913656;29;20468;-58
2024/01/24 02:36:28;;;;;;;22.42;3.30;;;11.00;99.90;;;;;;4913879;29;20372;-59
2024/01/24 02:38:54;;;;;;;25.20;3.53;;;10.90;99.90;;;;;;4913871;29;20145;-58
2024/01/24 02:41:20;;;;;;;14.27;3.80;;;10.90;99.90;;;;;;4913659;29;20032;-57
2024/01/24 02:43:46;;;;;;;17.83;2.90;;;10.80;99.90;;;;;;4913807;29;20068;-59
2024/01/24 02:46:12;;;;;;;34.60;4.82;;;10.80;99.90;;;;;;4913498;29;20035;-60
2024/01/24 02:48:38;;;;;;;23.80;3.38;;;10.70;99.90;;;;;;4913773;29;20043;-58
2024/01/24 02:51:04;;;;;;;27.23;4.03;;;10.70;99.90;;;;;;4912201;29;20055;-58
2024/01/24 02:53:29;;;;;;;22.23;4.20;;;10.70;99.90;;;;;;4913933;29;20510;-57
2024/01/24 02:55:55;;;;;;;26.42;4.00;;;10.70;99.90;;;;;;4913640;29;20562;-58
2024/01/24 02:58:20;;;;;;;23.58;4.47;;;10.70;99.90;;;;;;4910852;29;20595;-59
2024/01/24 03:00:46;;;;;;;25.73;4.03;;;10.70;99.90;;;;;;4916792;29;20055;-59
2024/01/24 03:03:12;;;;;;;22.85;4.18;;;10.70;99.90;;;;;;4907906;29;20483;-59
2024/01/24 03:05:37;;;;;;;21.13;4.45;;;10.70;99.90;;;;;;4917090;29;20040;-52
2024/01/24 03:08:03;;;;;;;16.33;3.47;;;10.70;99.90;;;;;;4907983;29;20092;-55
2024/01/24 03:10:29;;;;;;;30.27;4.32;;;10.70;99.90;;;;;;4910562;29;20035;-53
2024/01/24 03:12:54;;;;;;;31.67;4.13;;;10.60;99.90;;;;;;4911386;29;20423;-54
2024/01/24 03:15:21;;;;;;;31.10;4.55;;;10.60;99.90;;;;;;4916381;29;20032;-56
2024/01/24 03:17:46;;;;;;;33.30;4.22;;;10.60;99.90;;;;;;4916276;29;20024;-56
2024/01/24 03:20:13;;;;;;;21.88;4.70;;;10.50;99.90;;;;;;4916298;29;20111;-54
2024/01/24 03:22:42;;;;;;;23.13;4.75;;;10.50;99.90;;;;;;4915000;29;20044;-55
2024/01/24 03:25:08;;;;;;;26.23;4.18;;;10.50;99.90;;;;;;4915434;29;20040;-54
2024/01/24 03:27:33;;;;;;;28.92;4.63;;;10.50;99.90;;;;;;4916297;29;20024;-57
2024/01/24 03:29:59;;;;;;;26.17;3.70;;;10.50;99.90;;;;;;4911993;29;20088;-50
2024/01/24 03:32:25;;;;;;;29.13;4.38;;;10.40;99.90;;;;;;4911963;29;20020;-53
2024/01/24 03:34:54;;;;;;;21.92;4.13;;;10.40;99.90;;;;;;4915501;29;20071;-53
2024/01/24 03:37:20;;;;;;;20.13;3.38;;;10.40;99.90;;;;;;4912840;29;20118;-51
2024/01/24 03:39:46;;;;;;;23.70;3.97;;;10.40;99.90;;;;;;4915706;29;20107;-55
2024/01/24 03:42:12;;;;;;;20.13;4.35;;;10.40;99.90;;;;;;4913512;29;20044;-50
2024/01/24 03:44:37;;;;;;;31.30;4.40;;;10.30;99.90;;;;;;4914317;29;20051;-49
2024/01/24 03:47:03;;;;;;;26.13;4.50;;;10.40;99.90;;;;;;4914066;29;20424;-50
2024/01/24 03:49:29;;;;;;;16.83;3.53;;;10.40;99.90;;;;;;4915028;29;20497;-53
2024/01/24 03:51:54;;;;;;;28.98;4.43;;;10.30;99.90;;;;;;4915920;29;20130;-52
2024/01/24 03:54:22;;;;;;;20.92;3.55;;;10.30;99.90;;;;;;4914568;29;20040;-53
2024/01/24 03:56:47;;;;;;;23.38;3.55;;;10.20;99.90;;;;;;4915429;29;20107;-51
2024/01/24 03:59:13;;;;;;;22.63;3.60;;;10.20;99.90;;;;;;4912466;29;20123;-51
2024/01/24 04:01:39;;;;;;;34.22;4.40;;;10.20;99.90;;;;;;4913841;29;20051;-53
2024/01/24 04:04:05;;;;;;;28.10;4.82;;;10.20;99.90;;;;;;4912988;29;20028;-49
2024/01/24 04:06:31;;;;;;;17.83;3.05;;;10.20;99.90;;;;;;4909555;29;20114;-52
2024/01/24 04:08:56;;;;;;;27.35;5.13;;;10.10;99.90;;;;;;4913377;29;20107;-50
2024/01/24 04:11:22;;;;;;;26.75;4.10;;;10.10;99.90;;;;;;4916055;29;20035;-55
2024/01/24 04:13:56;;;;;;;23.10;3.83;;;10.10;99.90;;;;;;4915725;29;20044;-51
2024/01/24 04:16:22;;;;;;;20.77;4.13;;;10.10;99.90;;;;;;4915103;29;20111;-54
2024/01/24 04:18:50;;;;;;;22.40;3.35;;;10.00;99.90;;;;;;4915569;29;20191;-52
2024/01/24 04:21:16;;;;;;;21.92;3.80;;;10.00;99.90;;;;;;4915573;29;20036;-53
2024/01/24 04:23:41;;;;;;;25.85;4.22;;;10.00;99.90;;;;;;4911659;29;20394;-53
2024/01/24 04:26:07;;;;;;;23.58;3.47;;;10.00;99.90;;;;;;4914843;29;20032;-53
2024/01/24 04:28:33;;;;;;;20.15;3.25;;;9.90;99.90;;;;;;4915299;29;20039;-52
2024/01/24 04:30:59;;;;;;;28.77;4.43;;;9.90;99.90;;;;;;4915373;29;20387;-51
2024/01/24 04:33:24;;;;;;;21.65;4.03;;;9.90;99.90;;;;;;4911313;29;21149;-50
2024/01/24 04:35:50;;;;;;;20.88;4.82;;;9.90;99.90;;;;;;4911381;29;20055;-50
2024/01/24 04:38:16;;;;;;;27.83;5.00;;;10.00;99.90;;;;;;4914212;29;20383;-50
2024/01/24 04:40:42;;;;;;;21.35;3.85;;;10.10;99.90;;;;;;4913131;29;20029;-50
2024/01/24 04:43:08;;;;;;;19.33;2.88;;;10.10;99.90;;;;;;4914362;29;20032;-51
2024/01/24 04:45:34;;;;;;;31.58;4.93;;;10.10;99.90;;;;;;4914645;29;20114;-50
2024/01/24 04:48:00;;;;;;;30.48;4.07;;;10.00;99.90;;;;;;4906834;29;20032;-51
2024/01/24 04:50:25;;;;;;;26.30;4.00;;;10.00;99.90;;;;;;4911013;29;20024;-50
2024/01/24 04:52:51;;;;;;;23.13;3.70;;;10.00;99.90;;;;;;4913394;29;20039;-51
2024/01/24 04:55:16;;;;;;;24.92;3.58;;;10.00;99.90;;;;;;4912466;29;20020;-51
2024/01/24 04:57:42;;;;;;;21.25;2.85;;;10.00;99.90;;;;;;4908307;29;20083;-49
2024/01/24 05:00:09;;;;;;;26.83;4.55;;;10.10;99.90;;;;;;4913242;29;20076;-50
2024/01/24 05:02:37;;;;;;;17.92;3.45;;;10.00;99.90;;;;;;4914386;29;20043;-49
2024/01/24 05:05:06;;;;;;;23.75;3.78;;;10.00;99.90;;;;;;4910988;29;20024;-50
2024/01/24 05:07:32;;;;;;;20.55;3.53;;;10.00;99.90;;;;;;4914239;29;20546;-50
2024/01/24 05:09:58;;;;;;;26.65;4.93;;;10.00;99.90;;;;;;4914540;29;20034;-49
2024/01/24 05:12:24;;;;;;;26.30;4.10;;;9.90;99.90;;;;;;4914248;29;20032;-51
2024/01/24 05:14:49;;;;;;;27.70;4.22;;;9.90;99.90;;;;;;4911855;29;20472;-54
2024/01/24 05:17:15;;;;;;;25.42;4.28;;;9.90;99.90;;;;;;4914112;29;20042;-49
2024/01/24 05:19:41;;;;;;;26.95;3.80;;;10.00;99.90;;;;;;4915989;29;20537;-55
2024/01/24 05:22:06;;;;;;;23.35;3.60;;;10.00;99.90;;;;;;4916250;29;20526;-54
2024/01/24 05:24:32;;;;;;;21.67;3.45;;;10.10;99.90;;;;;;4918277;29;20106;-50
2024/01/24 05:26:57;;;;;;;18.48;3.35;;;10.00;99.90;;;;;;4921892;29;20062;-53
2024/01/24 05:29:23;;;;;;;22.27;3.83;;;10.00;99.90;;;;;;4917538;29;20036;-56
2024/01/24 05:31:49;;;;;;;26.90;3.50;;;10.00;99.90;;;;;;4909996;29;20028;-51
2024/01/24 05:34:14;;;;;;;18.38;2.97;;;9.90;99.90;;;;;;4914539;29;20032;-50
2024/01/24 05:36:40;;;;;;;18.92;3.95;;;9.90;99.90;;;;;;4911946;29;20036;-51
2024/01/24 05:39:06;;;;;;;29.38;4.32;;;9.90;99.90;;;;;;4902777;29;20076;-55
2024/01/24 05:41:33;;;;;;;20.27;4.05;;;9.80;99.90;;;;;;4909643;29;20447;-55
2024/01/24 05:43:59;;;;;;;19.65;4.18;;;9.90;99.90;;;;;;4916661;29;20118;-53
2024/01/24 05:46:24;;;;;;;17.08;4.07;;;9.90;99.90;;;;;;4918586;29;20107;-52
2024/01/24 05:48:50;;;;;;;20.63;3.80;;;9.80;99.90;;;;;;4929271;29;20039;-52
2024/01/24 05:51:16;;;;;;;22.38;3.08;;;9.90;99.90;;;;;;4922962;29;20177;-50
2024/01/24 05:53:42;;;;;;;20.65;4.20;;;9.90;99.90;;;;;;4929076;29;20091;-52
2024/01/24 05:56:08;;;;;;;24.55;3.47;;;9.90;99.90;;;;;;4923719;29;20517;-55
2024/01/24 05:58:34;;;;;;;21.83;3.65;;;9.90;99.90;;;;;;4926215;29;20028;-55
2024/01/24 06:01:00;;;;;;;25.67;3.50;;;9.90;99.90;;;;;;4913980;29;20091;-52
2024/01/24 06:03:25;;;;;;;19.27;3.20;;;9.80;99.90;;;;;;4915108;29;20032;-55
2024/01/24 06:05:51;;;;;;;23.42;3.60;;;9.80;99.90;;;;;;4916960;29;20495;-51
2024/01/24 06:08:16;;;;;;;15.45;3.95;;;9.70;99.90;;;;;;4916635;29;20141;-56
2024/01/24 06:10:42;;;;;;;20.90;3.83;;;9.60;99.90;;;;;;4917687;29;20032;-52
2024/01/24 06:13:08;;;;;;;25.50;3.75;;;9.60;99.90;;;;;;4916912;29;20173;-53
2024/01/24 06:15:33;;;;;;;21.23;3.45;;;9.60;99.90;;;;;;4916711;29;20028;-51
2024/01/24 06:17:59;;;;;;;16.48;3.95;;;9.60;99.90;;;;;;4918736;29;20542;-52
2024/01/24 06:20:25;;;;;;;16.85;3.40;;;9.60;99.90;;;;;;4916729;29;20032;-53
2024/01/24 06:22:51;;;;;;;19.38;3.17;;;9.60;99.90;;;;;;4918561;29;20490;-55
2024/01/24 06:25:17;;;;;;;16.88;3.35;;;9.60;99.90;;;;;;4914990;29;20143;-55
2024/01/24 06:27:42;;;;;;;25.88;3.78;;;9.60;99.90;;;;;;4915734;29;20091;-51
2024/01/24 06:30:09;;;;;;;28.10;3.40;;;9.50;99.90;;;;;;4913066;29;20090;-52
2024/01/24 06:32:35;;;;;;;23.67;3.47;;;9.40;99.90;;;;;;4912512;29;20118;-51
2024/01/24 06:35:01;;;;;;;20.23;3.45;;;9.30;99.90;;;;;;4912507;29;20024;-56
2024/01/24 06:37:26;;;;;;;21.58;3.55;;;9.30;99.90;;;;;;4912392;29;20387;-57
2024/01/24 06:39:52;;;;;;;19.23;3.33;;;9.30;99.90;;;;;;4913297;29;20043;-58
2024/01/24 06:42:18;;;;;;;17.75;3.80;;;9.20;99.90;;;;;;4912826;29;20040;-54
2024/01/24 06:44:43;;;;;;;16.25;3.50;;;9.20;99.90;;;;;;4914354;29;20032;-53
2024/01/24 06:47:09;;;;;;;26.15;3.78;;;9.20;99.90;;;;;;4916568;29;20028;-55
2024/01/24 06:49:35;;;;;;;25.23;3.90;;;9.10;99.90;;;;;;4918027;29;20024;-53
2024/01/24 06:52:00;;;;;;;16.38;2.33;;;9.10;99.90;;;;;;4917722;29;20365;-51
2024/01/24 06:54:27;;;;;;;18.00;3.50;;;9.10;99.90;;;;;;4917831;29;20103;-50
2024/01/24 06:56:52;;;;;;;27.33;4.38;;;9.20;99.90;;;;;;4917842;29;20051;-50
2024/01/24 06:59:18;;;;;;;16.98;3.08;;;9.20;99.90;;;;;;4918058;29;20107;-55
2024/01/24 07:01:44;;;;;;;18.95;2.63;;;9.20;99.90;;;;;;4918246;29;20088;-55
2024/01/24 07:04:09;;;;;;;14.23;2.90;;;9.20;99.90;;;;;;4918029;29;20460;-51
2024/01/24 07:06:35;;;;;;;16.55;3.22;;;9.20;99.90;;;;;;4917747;29;20032;-56
2024/01/24 07:09:01;;;;;;;15.95;2.88;;;9.20;99.90;;;;;;4917410;29;20024;-50
2024/01/24 07:11:27;;;;;;;22.13;3.60;;;9.20;99.90;;;;;;4917536;29;20372;-53
2024/01/24 07:13:53;;;;;;;24.48;3.22;;;9.20;99.90;;;;;;4917622;29;20372;-52
2024/01/24 07:16:18;;;;;;;20.05;2.35;;;9.10;99.90;;;;;;4917418;29;20438;-54
2024/01/24 07:18:44;;;;;;;16.15;2.97;;;9.20;99.90;;;;;;4917220;29;20028;-49
2024/01/24 07:21:10;;;;;;;24.27;3.55;;;9.10;99.90;;;;;;4917113;29;20139;-52
2024/01/24 07:23:35;;;;;;;20.48;3.35;;;9.10;99.90;;;;;;4917225;29;20107;-50
2024/01/24 07:26:02;;;;;;;22.85;3.65;;;9.10;99.90;;;;;;4917099;29;20119;-50
2024/01/24 07:28:29;;;;;;;19.98;2.72;;;9.00;99.90;;;;;;4917027;29;20032;-51
2024/01/24 07:30:55;;;;;;;25.35;3.33;;;9.00;99.90;;;;;;4917154;29;20364;-50
2024/01/24 07:33:21;;;;;;;22.50;4.93;;;9.00;99.90;;;;;;4936110;29;20410;-49
2024/01/24 07:35:47;;;;;;;25.58;3.17;;;8.90;99.90;;;;;;4936039;29;20052;-51
2024/01/24 07:38:13;;;;;;;21.08;3.22;;;8.90;99.90;;;;;;4935970;29;20126;-52
2024/01/24 07:40:38;;;;;;;24.73;4.25;;;8.90;99.90;;;;;;4935847;29;20024;-50
2024/01/24 07:43:05;;;;;;;22.15;3.33;;;8.90;99.90;;;;;;4935804;29;20039;-50
2024/01/24 07:45:31;;;;;;;23.45;3.80;;;8.90;99.90;;;;;;4931844;29;20065;-50
2024/01/24 07:47:56;;;;;;;20.15;2.78;;;8.90;99.90;;;;;;4927279;29;20032;-50
2024/01/24 07:50:22;;;;;;;20.35;3.42;;;8.90;99.90;;;;;;4927948;29;20449;-50
2024/01/24 07:52:48;;;;;;;14.70;2.85;;;8.90;99.90;;;;;;4923001;29;20013;-50
2024/01/24 07:55:14;;;;;;;23.50;3.75;;;9.00;99.90;;;;;;4922907;29;20119;-49
2024/01/24 07:57:40;;;;;;;28.83;3.42;;;9.00;99.90;;;;;;4931908;29;20056;-49
2024/01/24 08:00:06;;;;;;;20.38;2.92;;;9.00;99.90;;;;;;4932547;29;20036;-50
2024/01/24 08:02:32;;;;;;;19.25;3.03;;;9.00;99.90;;;;;;4932976;29;20047;-50
2024/01/24 08:04:58;;;;;;;18.63;2.80;;;9.10;99.90;;;;;;4930765;29;20031;-51
2024/01/24 08:07:24;;;;;;;26.48;3.60;;;9.10;99.90;;;;;;4926799;29;20032;-49
2024/01/24 08:09:50;;;;;;;16.88;2.85;;;9.10;99.90;;;;;;4919795;29;20487;-50
2024/01/24 08:12:15;;;;;;;21.30;4.00;;;9.10;99.90;;;;;;4927598;29;20028;-50
2024/01/24 08:14:41;;;;;;;15.00;2.92;;;9.10;99.90;;;;;;4922753;29;20055;-51
2024/01/24 08:17:08;;;;;;;18.90;2.83;;;9.20;99.90;;;;;;4926563;29;20032;-50
2024/01/24 08:19:34;;;;;;;26.98;3.65;;;9.20;99.90;;;;;;4923598;29;20099;-50
2024/01/24 08:22:00;;;;;;;32.30;3.75;;;9.20;99.90;;;;;;4924557;29;20042;-51
2024/01/24 08:24:26;;;;;;;18.10;3.55;;;9.30;99.90;;;;;;4923951;29;20495;-51
2024/01/24 08:26:51;;;;;;;26.25;4.90;;;9.40;99.90;;;;;;4923162;29;20043;-54
2024/01/24 08:29:18;;;;;;;18.85;3.22;;;9.40;99.90;;;;;;4920121;29;20024;-54
2024/01/24 08:31:44;;;;;;;13.50;2.83;;;9.60;99.90;;;;;;4916111;29;20032;-54
2024/01/24 08:34:10;;;;;;;18.65;3.97;;;9.60;99.90;;;;;;4916022;29;20044;-51
2024/01/24 08:36:36;;;;;;;19.10;3.67;;;9.60;99.90;;;;;;4915831;29;20035;-52
2024/01/24 08:39:03;;;;;;;23.38;3.72;;;9.70;99.90;;;;;;4915647;29;20035;-53
2024/01/24 08:41:29;;;;;;;18.50;3.78;;;9.70;99.90;;;;;;4915734;29;20091;-57
2024/01/24 08:43:57;;;;;;;16.45;2.92;;;9.80;99.90;;;;;;4915462;29;20024;-50
2024/01/24 08:46:23;;;;;;;18.38;2.88;;;9.80;99.90;;;;;;4915628;29;20034;-53
2024/01/24 08:48:49;;;;;;;18.08;3.58;;;9.90;99.90;;;;;;4911859;29;20055;-54
2024/01/24 08:51:14;;;;;;;26.55;3.13;;;10.00;99.90;;;;;;4930577;29;20082;-49
2024/01/24 08:53:40;;;;;;;17.80;3.03;;;10.20;99.90;;;;;;4932952;29;20738;-54
2024/01/24 08:56:06;;;;;;;21.35;3.67;;;10.30;99.90;;;;;;4932627;29;20071;-55
2024/01/24 08:58:31;;;;;;;18.50;3.90;;;10.60;99.90;;;;;;4934054;29;20063;-53
2024/01/24 09:00:58;;;;;;;21.92;3.55;;;10.70;99.90;;;;;;4933288;29;20099;-53
2024/01/24 09:03:24;;;;;;;29.85;4.93;;;10.90;99.90;;;;;;4934305;29;20049;-51
2024/01/24 09:05:51;;;;;;;12.52;3.35;;;11.30;99.90;;;;;;4933404;29;20458;-51
2024/01/24 09:08:17;;;;;;;23.25;3.25;;;11.60;99.90;;;;;;4933739;29;20474;-53
2024/01/24 09:10:43;;;;;;;22.20;3.33;;;11.80;99.90;;;;;;4932992;29;20051;-55
2024/01/24 09:13:08;;;;;;;12.60;2.80;;;12.00;99.90;;;;;;4934059;29;20024;-50
2024/01/24 09:15:34;;;;;;;24.13;3.95;;;12.20;99.90;;;;;;4933660;29;20110;-51
2024/01/24 09:18:00;;;;;;;30.50;4.13;;;12.50;99.90;;;;;;4933393;29;20028;-51
2024/01/24 09:20:26;;;;;;;14.60;2.70;;;12.40;99.90;;;;;;4933798;29;20082;-53
2024/01/24 09:22:53;;;;;;;17.23;3.55;;;12.40;99.90;;;;;;4928977;29;20135;-50
2024/01/24 09:25:19;;;;;;;19.52;2.85;;;12.20;99.90;;;;;;4915729;29;20067;-54
2024/01/24 09:27:45;;;;;;;18.70;2.70;;;11.90;99.90;;;;;;4916581;29;20028;-54
2024/01/24 09:30:11;;;;;;;16.10;3.65;;;11.60;99.90;;;;;;4902541;29;20502;-55
2024/01/24 09:32:37;;;;;;;23.92;3.80;;;11.40;99.90;;;;;;4904242;29;20171;-56
2024/01/24 09:35:03;;;;;;;25.00;3.03;;;11.40;99.90;;;;;;4907303;29;20111;-56
2024/01/24 09:37:29;;;;;;;28.17;3.63;;;11.40;99.90;;;;;;4922341;29;20038;-54
2024/01/24 09:39:56;;;;;;;16.67;2.58;;;11.40;99.90;;;;;;4927013;29;20024;-52
2024/01/24 09:42:27;;;;;;;26.55;4.50;;;11.40;99.90;;;;;;4903398;29;20111;-52
2024/01/24 09:44:57;;;;;;;16.55;3.15;;;11.50;99.90;;;;;;4920502;29;20031;-53
2024/01/24 09:47:24;;;;;;;14.15;3.28;;;11.70;99.90;;;;;;4929390;29;20024;-51
2024/01/24 09:49:51;;;;;;;25.45;3.38;;;11.70;99.90;;;;;;4928550;29;20122;-53
2024/01/24 09:52:24;;;;;;;17.20;3.33;;;11.90;99.90;;;;;;4927850;29;20026;-53
2024/01/24 09:54:55;;;;;;;19.13;3.35;;;12.50;99.90;;;;;;4929792;29;20035;-53
2024/01/24 09:57:22;;;;;;;19.85;2.58;;;12.80;99.90;;;;;;4927737;29;20383;-54
2024/01/24 09:59:48;;;;;;;19.73;3.53;;;12.80;99.90;;;;;;4929420;29;20079;-56
2024/01/24 10:02:14;;;;;;;11.02;2.85;;;12.80;99.90;;;;;;4932344;29;20040;-54
2024/01/24 10:04:43;;;;;;;13.52;2.50;;;13.10;99.90;;;;;;4921115;29;20031;-59
2024/01/24 10:07:10;;;;;;;17.40;4.38;;;13.90;99.90;;;;;;4922581;29;20027;-59
2024/01/24 10:09:36;;;;;;;18.52;3.20;;;14.40;99.90;;;;;;4932866;29;20027;-50
2024/01/24 10:12:03;;;;;;;20.02;3.47;;;14.80;99.90;;;;;;4918172;29;20044;-60
2024/01/24 10:14:29;;;;;;;17.10;2.88;;;15.10;99.90;;;;;;4909270;29;20080;-60
2024/01/24 10:16:55;;;;;;;13.77;2.78;;;15.10;99.90;;;;;;4915002;29;20040;-55
2024/01/24 10:19:24;;;;;;;16.73;3.17;;;15.40;99.90;;;;;;4915327;29;20062;-60
2024/01/24 10:21:51;;;;;;;13.18;2.53;;;15.60;99.90;;;;;;4926684;29;20043;-58
2024/01/24 10:24:17;;;;;;;17.17;3.13;;;15.70;99.90;;;;;;4922473;29;20040;-52
2024/01/24 10:26:46;;;;;;;11.75;2.75;;;16.10;99.90;;;;;;4934418;29;20036;-54
2024/01/24 10:29:12;;;;;;;15.25;3.63;;;16.60;99.90;;;;;;4927997;29;20033;-57
2024/01/24 10:31:37;;;;;;;23.20;3.78;;;16.60;99.90;;;;;;4917972;29;20040;-57
2024/01/24 10:34:04;;;;;;;10.00;2.63;;;16.50;99.90;;;;;;4918153;29;20030;-59
2024/01/24 10:36:30;;;;;;;16.77;3.33;;;16.50;99.90;;;;;;4917868;29;20110;-59
2024/01/24 10:39:04;;;;;;;17.80;2.72;;;15.90;99.90;;;;;;4917978;29;20510;-53
2024/01/24 10:41:31;;;;;;;15.43;2.60;;;16.00;99.90;;;;;;4918066;29;20044;-52
2024/01/24 10:44:02;;;;;;;15.68;3.20;;;15.90;99.90;;;;;;4917584;29;20071;-54
2024/01/24 10:46:28;;;;;;;13.52;2.30;;;16.20;99.90;;;;;;4918092;29;20051;-51
2024/01/24 10:48:54;;;;;;;14.95;2.92;;;16.40;99.90;;;;;;4917671;29;20511;-59
2024/01/24 10:51:20;;;;;;;12.20;2.63;;;16.70;99.90;;;;;;4918058;29;20428;-62
2024/01/24 10:53:49;;;;;;;16.63;3.05;;;16.60;99.90;;;;;;4927378;29;20028;-59
2024/01/24 10:56:15;;;;;;;14.05;2.47;;;16.00;99.90;;;;;;4932970;29;20565;-54
2024/01/24 10:58:42;;;;;;;17.55;3.35;;;16.10;99.90;;;;;;4929356;29;20028;-51
2024/01/24 11:01:08;;;;;;;19.55;3.03;;;15.90;99.90;;;;;;4932980;29;20032;-58
2024/01/24 11:03:34;;;;;;;15.65;2.95;;;15.90;99.90;;;;;;4930659;29;20030;-55
2024/01/24 11:06:03;;;;;;;15.60;2.55;;;15.80;99.90;;;;;;4930293;29;20123;-59
2024/01/24 11:08:48;;;;;;;15.32;2.85;;;15.50;99.90;;;;;;4931829;29;20031;-57
2024/01/24 11:11:17;;;;;;;21.65;3.75;;;15.80;99.90;;;;;;4932286;29;20028;-56
2024/01/24 11:13:43;;;;;;;14.80;2.72;;;15.20;99.90;;;;;;4930780;29;20035;-54
2024/01/24 11:16:30;;;;;;;14.68;2.30;;;15.10;99.90;;;;;;4931040;29;20103;-59
2024/01/24 11:19:00;;;;;;;25.42;4.75;;;14.70;99.90;;;;;;4929822;29;20035;-56
2024/01/24 11:21:28;;;;;;;9.88;3.20;;;14.80;99.90;;;;;;4932089;29;20090;-56
2024/01/24 11:23:54;;;;;;;18.13;3.03;;;14.90;99.90;;;;;;4930742;29;20028;-58
2024/01/24 11:26:19;;;;;;;12.68;2.67;;;16.10;99.90;;;;;;4930531;29;20039;-57
2024/01/24 11:28:46;;;;;;;10.93;2.22;;;17.30;99.90;;;;;;4926639;29;20060;-58
2024/01/24 11:31:13;;;;;;;15.00;3.08;;;17.90;99.90;;;;;;4916971;29;20115;-58
2024/01/24 11:34:08;;;;;;;15.70;2.63;;;18.70;99.90;;;;;;4904566;29;20024;-57
2024/01/24 11:36:47;;;;;;;9.57;2.20;;;19.50;99.50;;;;;;4912572;29;20466;-60
2024/01/24 11:39:34;;;;;;;14.13;2.58;;;19.20;98.00;;;;;;4916975;29;20035;-57
2024/01/24 11:42:42;;;;;;;11.38;2.63;;;18.40;99.50;;;;;;4916802;29;20460;-58
2024/01/24 11:45:19;;;;;;;15.02;2.85;;;17.80;99.80;;;;;;4876980;29;20112;-54
2024/01/24 11:47:46;;;;;;;13.63;2.92;;;18.40;99.60;;;;;;4877064;29;20025;-57
2024/01/24 11:50:12;;;;;;;10.57;2.30;;;18.30;98.60;;;;;;4889527;29;20037;-60
2024/01/24 11:52:39;;;;;;;12.27;3.00;;;17.80;99.40;;;;;;4916688;29;20035;-59
2024/01/24 11:55:05;;;;;;;20.45;2.22;;;17.80;99.90;;;;;;4916999;29;20103;-61
2024/01/24 11:57:31;;;;;;;10.77;2.53;;;17.80;99.30;;;;;;4916609;29;20115;-58
2024/01/24 11:59:57;;;;;;;18.13;3.05;;;17.20;99.70;;;;;;4916806;29;20467;-59
2024/01/24 12:02:26;;;;;;;17.75;2.67;;;16.40;99.90;;;;;;4916442;29;20604;-60
2024/01/24 12:04:52;;;;;;;11.73;3.25;;;15.30;99.90;;;;;;4916644;29;20024;-59
2024/01/24 12:07:18;;;;;;;14.65;3.47;;;14.60;99.90;;;;;;4913803;29;20130;-60
2024/01/24 12:09:44;;;;;;;17.42;2.75;;;13.90;99.90;;;;;;4931427;29;20056;-59
2024/01/24 12:12:11;;;;;;;22.05;2.75;;;13.70;99.90;;;;;;4926484;29;20088;-59
2024/01/24 12:14:38;;;;;;;11.40;2.42;;;13.50;99.90;;;;;;4930319;29;20122;-58
2024/01/24 12:17:03;;;;;;;18.30;3.17;;;13.30;99.90;;;;;;4928205;29;20036;-59
2024/01/24 12:19:30;;;;;;;11.13;2.28;;;13.20;99.90;;;;;;4928514;29;20106;-58
2024/01/24 12:21:58;;;;;;;14.77;3.22;;;13.10;99.90;;;;;;4929915;29;20065;-60
2024/01/24 12:24:24;;;;;;;12.27;2.58;;;13.10;99.90;;;;;;4926711;29;20037;-60
2024/01/24 12:26:49;;;;;;;19.98;3.35;;;13.30;99.90;;;;;;4930321;29;20110;-63
2024/01/24 12:29:15;;;;;;;15.30;2.75;;;14.00;99.90;;;;;;4920545;29;20083;-54
2024/01/24 12:31:45;;;;;;;15.43;3.05;;;14.70;99.90;;;;;;4925741;29;20067;-60
2024/01/24 12:34:11;;;;;;;12.73;2.72;;;15.70;99.90;;;;;;4928709;29;20168;-51
2024/01/24 12:36:37;;;;;;;13.18;3.08;;;16.30;99.90;;;;;;4924346;29;20034;-60